createdAt,value
2019-03-03T00:01:22.432Z,9.80
2019-03-03T00:03:53.296Z,9.80
2019-03-03T00:06:24.152Z,9.80
2019-03-03T00:08:54.994Z,9.90
2019-03-03T00:11:25.891Z,9.90
2019-03-03T00:13:56.798Z,9.90
2019-03-03T00:16:27.579Z,9.90
2019-03-03T00:18:58.451Z,9.90
2019-03-03T00:21:29.425Z,9.90
2019-03-03T00:24:00.247Z,9.80
2019-03-03T00:26:31.102Z,9.80
2019-03-03T00:29:02.228Z,9.90
2019-03-03T00:31:37.648Z,9.90
2019-03-03T00:34:08.415Z,9.90
2019-03-03T00:36:57.134Z,9.80
2019-03-03T00:39:46.855Z,9.80
2019-03-03T00:42:40.470Z,9.80
2019-03-03T00:45:37.531Z,9.80
2019-03-03T00:48:17.927Z,9.80
2019-03-03T00:51:10.536Z,9.90
2019-03-03T00:53:48.360Z,9.90
2019-03-03T00:56:27.549Z,9.90
2019-03-03T00:59:26.455Z,9.90
2019-03-03T01:02:17.951Z,9.90
2019-03-03T01:05:05.319Z,9.90
2019-03-03T01:07:52.686Z,9.90
2019-03-03T01:10:45.820Z,9.90
2019-03-03T01:13:48.024Z,9.90
2019-03-03T01:16:36.311Z,9.80
2019-03-03T01:19:14.123Z,9.80
2019-03-03T01:22:06.843Z,9.80
2019-03-03T01:24:53.479Z,9.80
2019-03-03T01:27:24.980Z,9.80
2019-03-03T01:29:55.783Z,9.80
2019-03-03T01:32:26.583Z,9.80
2019-03-03T01:34:57.483Z,9.80
2019-03-03T01:37:28.622Z,9.80
2019-03-03T01:39:59.412Z,9.80
2019-03-03T01:42:30.297Z,9.80
2019-03-03T01:45:01.225Z,9.80
2019-03-03T01:47:32.170Z,9.80
2019-03-03T01:50:02.945Z,9.80
2019-03-03T01:52:33.730Z,9.80
2019-03-03T01:55:04.876Z,9.80
2019-03-03T01:57:35.767Z,9.80
2019-03-03T02:00:16.922Z,9.80
2019-03-03T02:02:47.706Z,9.80
2019-03-03T02:05:19.167Z,9.80
2019-03-03T02:07:49.969Z,9.80
2019-03-03T02:10:23.495Z,9.80
2019-03-03T02:12:54.489Z,9.80
2019-03-03T02:15:25.519Z,9.80
2019-03-03T02:17:56.648Z,9.80
2019-03-03T02:20:27.524Z,9.80
2019-03-03T02:22:58.511Z,9.80
2019-03-03T02:25:29.484Z,9.80
2019-03-03T02:28:00.374Z,9.80
2019-03-03T02:30:31.335Z,9.70
2019-03-03T02:33:02.131Z,9.70
2019-03-03T02:35:33.008Z,9.70
2019-03-03T02:38:04.763Z,9.80
2019-03-03T02:40:35.617Z,9.80
2019-03-03T02:43:08.034Z,9.80
2019-03-03T02:45:38.839Z,9.80
2019-03-03T02:48:09.744Z,9.80
2019-03-03T02:50:40.577Z,9.80
2019-03-03T02:53:11.637Z,9.70
2019-03-03T02:55:42.590Z,9.80
2019-03-03T02:58:13.364Z,9.80
2019-03-03T03:00:54.491Z,9.70
2019-03-03T03:03:25.395Z,9.70
2019-03-03T03:06:27.426Z,9.60
2019-03-03T03:09:13.477Z,9.60
2019-03-03T03:11:59.924Z,9.60
2019-03-03T03:14:40.150Z,9.70
2019-03-03T03:17:28.669Z,9.70
2019-03-03T03:20:30.521Z,9.60
2019-03-03T03:23:24.871Z,9.60
2019-03-03T03:26:26.669Z,9.60
2019-03-03T03:29:15.148Z,9.60
2019-03-03T03:32:17.309Z,9.60
2019-03-03T03:34:54.189Z,9.60
2019-03-03T03:37:31.414Z,9.60
2019-03-03T03:40:36.291Z,9.60
2019-03-03T03:43:16.319Z,9.60
2019-03-03T03:46:10.644Z,9.70
2019-03-03T03:48:51.419Z,9.70
2019-03-03T03:51:41.166Z,9.70
2019-03-03T03:54:29.915Z,9.70
2019-03-03T03:57:19.621Z,9.70
2019-03-03T03:59:54.914Z,9.80
2019-03-03T04:02:44.692Z,9.80
2019-03-03T04:05:49.494Z,9.80
2019-03-03T04:08:34.472Z,9.80
2019-03-03T04:11:27.173Z,9.90
2019-03-03T04:14:16.957Z,9.90
2019-03-03T04:17:08.580Z,9.90
2019-03-03T04:20:01.065Z,9.90
2019-03-03T04:22:50.945Z,10.00
2019-03-03T04:25:32.463Z,10.00
2019-03-03T04:28:34.479Z,9.90
2019-03-03T04:31:36.707Z,9.90
2019-03-03T04:34:29.369Z,9.90
2019-03-03T04:37:22.379Z,9.80
2019-03-03T04:40:05.354Z,9.70
2019-03-03T04:42:47.285Z,9.70
2019-03-03T04:45:26.897Z,9.60
2019-03-03T04:48:09.697Z,9.50
2019-03-03T04:50:52.523Z,9.40
2019-03-03T04:54:01.606Z,9.40
2019-03-03T04:56:57.368Z,9.30
2019-03-03T04:59:44.187Z,9.20
2019-03-03T05:02:32.941Z,9.20
2019-03-03T05:05:34.794Z,9.10
2019-03-03T05:08:24.703Z,9.10
2019-03-03T05:11:23.642Z,9.10
2019-03-03T05:14:02.399Z,9.00
2019-03-03T05:16:41.531Z,9.00
2019-03-03T05:19:34.915Z,9.00
2019-03-03T05:22:05.688Z,8.90
2019-03-03T05:24:36.475Z,8.90
2019-03-03T05:27:07.243Z,8.90
2019-03-03T05:29:38.028Z,8.90
2019-03-03T05:32:08.823Z,8.90
2019-03-03T05:34:39.649Z,8.90
2019-03-03T05:37:10.527Z,8.80
2019-03-03T05:39:41.322Z,8.80
2019-03-03T05:42:12.274Z,8.80
2019-03-03T05:44:43.058Z,8.80
2019-03-03T05:47:13.893Z,8.80
2019-03-03T05:49:44.655Z,8.80
2019-03-03T05:52:15.421Z,8.80
2019-03-03T05:54:46.959Z,8.80
2019-03-03T05:57:17.863Z,8.80
2019-03-03T05:59:48.647Z,8.70
2019-03-03T06:02:19.442Z,8.80
2019-03-03T06:04:50.241Z,8.80
2019-03-03T06:07:21.021Z,8.80
2019-03-03T06:09:51.834Z,8.80
2019-03-03T06:12:22.634Z,8.80
2019-03-03T06:14:53.483Z,8.80
2019-03-03T06:17:24.269Z,8.80
2019-03-03T06:19:55.133Z,8.80
2019-03-03T06:22:25.913Z,8.80
2019-03-03T06:24:56.693Z,8.80
2019-03-03T06:27:27.458Z,8.80
2019-03-03T06:29:58.257Z,8.80
2019-03-03T06:32:29.043Z,8.80
2019-03-03T06:34:59.930Z,8.80
2019-03-03T06:37:30.777Z,8.80
2019-03-03T06:40:01.561Z,8.80
2019-03-03T06:42:32.492Z,8.80
2019-03-03T06:45:03.286Z,8.80
2019-03-03T06:47:34.049Z,8.80
2019-03-03T06:50:05.262Z,8.80
2019-03-03T06:52:36.061Z,8.90
2019-03-03T06:55:08.158Z,8.90
2019-03-03T06:57:40.015Z,9.00
2019-03-03T07:00:14.202Z,9.00
2019-03-03T07:02:45.043Z,9.00
2019-03-03T07:05:16.949Z,9.00
2019-03-03T07:07:47.724Z,9.00
2019-03-03T07:10:19.610Z,9.00
2019-03-03T07:12:50.549Z,9.00
2019-03-03T07:15:21.344Z,9.00
2019-03-03T07:17:52.221Z,9.00
2019-03-03T07:20:23.186Z,9.00
2019-03-03T07:22:54.041Z,9.00
2019-03-03T07:25:24.834Z,9.00
2019-03-03T07:27:55.729Z,9.00
2019-03-03T07:30:26.563Z,9.10
2019-03-03T07:33:15.011Z,9.10
2019-03-03T07:35:45.947Z,9.10
2019-03-03T07:38:18.342Z,9.10
2019-03-03T07:40:49.266Z,9.10
2019-03-03T07:43:21.096Z,9.20
2019-03-03T07:45:51.885Z,9.20
2019-03-03T07:48:22.675Z,9.20
2019-03-03T07:50:54.634Z,9.20
2019-03-03T07:53:27.192Z,9.30
2019-03-03T07:55:59.048Z,9.20
2019-03-03T07:58:33.026Z,9.20
2019-03-03T08:01:05.630Z,9.30
2019-03-03T08:03:39.530Z,9.30
2019-03-03T08:06:11.803Z,9.30
2019-03-03T08:08:43.567Z,9.30
2019-03-03T08:11:14.504Z,9.30
2019-03-03T08:13:45.427Z,9.30
2019-03-03T08:16:17.288Z,9.40
2019-03-03T08:18:48.194Z,9.40
2019-03-03T08:21:19.005Z,9.40
2019-03-03T08:23:50.119Z,9.50
2019-03-03T08:26:20.974Z,9.50
2019-03-03T08:28:52.083Z,9.60
2019-03-03T08:31:23.976Z,9.60
2019-03-03T08:33:55.003Z,9.60
2019-03-03T08:36:25.960Z,9.60
2019-03-03T08:38:57.056Z,9.60
2019-03-03T08:41:28.024Z,9.50
2019-03-03T08:44:11.833Z,9.50
2019-03-03T08:47:14.051Z,9.50
2019-03-03T08:50:03.877Z,9.50
2019-03-03T08:53:07.404Z,9.50
2019-03-03T08:56:09.294Z,9.40
2019-03-03T08:58:58.237Z,9.50
2019-03-03T09:02:03.212Z,9.50
2019-03-03T09:04:45.249Z,9.50
2019-03-03T09:07:33.781Z,9.50
2019-03-03T09:10:25.570Z,9.50
2019-03-03T09:13:15.049Z,9.50
2019-03-03T09:16:05.429Z,9.50
2019-03-03T09:18:57.402Z,9.50
2019-03-03T09:22:05.283Z,9.50
2019-03-03T09:24:54.087Z,9.50
2019-03-03T09:27:57.249Z,9.60
2019-03-03T09:30:59.312Z,9.60
2019-03-03T09:34:04.459Z,9.60
2019-03-03T09:36:55.444Z,9.60
2019-03-03T09:39:44.313Z,9.60
2019-03-03T09:42:49.204Z,9.70
2019-03-03T09:45:44.553Z,9.70
2019-03-03T09:48:46.460Z,9.80
2019-03-03T09:51:35.177Z,9.80
2019-03-03T09:54:26.197Z,9.70
2019-03-03T09:57:24.971Z,9.80
2019-03-03T10:00:21.521Z,9.80
2019-03-03T10:03:23.877Z,9.80
2019-03-03T10:06:13.676Z,9.90
2019-03-03T10:08:56.399Z,9.90
2019-03-03T10:11:36.363Z,9.90
2019-03-03T10:14:19.049Z,9.90
2019-03-03T10:17:03.506Z,9.90
2019-03-03T10:19:53.303Z,9.90
2019-03-03T10:22:39.879Z,9.90
2019-03-03T10:25:49.074Z,9.90
2019-03-03T10:28:37.388Z,10.00
2019-03-03T10:31:25.896Z,10.10
2019-03-03T10:34:10.333Z,10.10
2019-03-03T10:37:00.791Z,10.10
2019-03-03T10:39:56.508Z,10.10
2019-03-03T10:42:52.265Z,10.10
2019-03-03T10:45:37.482Z,10.20
2019-03-03T10:48:33.932Z,10.20
2019-03-03T10:51:16.114Z,10.20
2019-03-03T10:54:09.813Z,10.10
2019-03-03T10:57:03.406Z,10.20
2019-03-03T10:59:55.294Z,10.20
2019-03-03T11:02:43.505Z,10.20
2019-03-03T11:05:42.482Z,10.20
2019-03-03T11:08:35.885Z,10.20
2019-03-03T11:11:32.300Z,10.20
2019-03-03T11:14:25.313Z,10.20
2019-03-03T11:17:21.182Z,10.20
2019-03-03T11:20:17.051Z,10.20
2019-03-03T11:23:18.945Z,10.30
2019-03-03T11:26:03.411Z,10.20
2019-03-03T11:28:49.841Z,10.20
2019-03-03T11:31:42.464Z,10.30
2019-03-03T11:34:32.149Z,10.30
2019-03-03T11:37:27.974Z,10.30
2019-03-03T11:40:27.880Z,10.40
2019-03-03T11:43:18.938Z,10.40
2019-03-03T11:45:59.052Z,10.40
2019-03-03T11:48:54.895Z,10.40
2019-03-03T11:51:43.674Z,10.50
2019-03-03T11:54:19.955Z,10.50
2019-03-03T11:57:21.965Z,10.50
2019-03-03T12:00:09.972Z,10.60
2019-03-03T12:02:53.876Z,10.60
2019-03-03T12:05:42.665Z,10.60
2019-03-03T12:08:33.710Z,10.70
2019-03-03T12:11:23.625Z,10.70
2019-03-03T12:14:12.411Z,10.70
2019-03-03T12:17:06.557Z,10.70
2019-03-03T12:20:08.529Z,10.80
2019-03-03T12:22:58.459Z,10.80
2019-03-03T12:25:46.868Z,10.80
2019-03-03T12:28:30.104Z,10.90
2019-03-03T12:31:22.741Z,10.80
2019-03-03T12:34:06.748Z,10.90
2019-03-03T12:37:02.407Z,10.90
2019-03-03T12:40:00.460Z,10.90
2019-03-03T12:42:42.506Z,10.90
2019-03-03T12:45:29.826Z,11.00
2019-03-03T12:48:25.868Z,11.00
2019-03-03T12:51:24.550Z,11.00
2019-03-03T12:54:13.215Z,11.00
2019-03-03T12:56:54.153Z,11.00
2019-03-03T12:59:43.102Z,11.00
2019-03-03T13:02:40.181Z,11.00
2019-03-03T13:05:46.776Z,11.00
2019-03-03T13:08:35.938Z,11.00
2019-03-03T13:11:16.965Z,11.00
2019-03-03T13:14:05.880Z,11.00
2019-03-03T13:17:00.008Z,11.00
2019-03-03T13:19:47.731Z,11.00
2019-03-03T13:22:41.545Z,11.00
2019-03-03T13:25:21.589Z,10.90
2019-03-03T13:28:04.361Z,10.90
2019-03-03T13:31:04.905Z,10.90
2019-03-03T13:33:54.675Z,10.80
2019-03-03T13:36:43.573Z,10.80
2019-03-03T13:39:23.180Z,10.80
2019-03-03T13:42:19.109Z,10.80
2019-03-03T13:44:50.926Z,10.80
2019-03-03T13:47:21.754Z,10.80
2019-03-03T13:49:52.741Z,10.80
2019-03-03T13:52:23.762Z,10.80
2019-03-03T13:54:56.590Z,10.80
2019-03-03T13:57:27.598Z,10.80
2019-03-03T13:59:58.464Z,10.80
2019-03-03T14:02:29.523Z,10.80
2019-03-03T14:05:00.331Z,10.80
2019-03-03T14:07:32.143Z,10.70
2019-03-03T14:10:04.740Z,10.70
2019-03-03T14:12:35.602Z,10.70
2019-03-03T14:15:09.386Z,10.70
2019-03-03T14:17:40.436Z,10.70
2019-03-03T14:20:14.572Z,10.70
2019-03-03T14:22:45.853Z,10.70
2019-03-03T14:25:17.352Z,10.70
2019-03-03T14:27:48.393Z,10.60
2019-03-03T14:30:21.394Z,10.70
2019-03-03T14:32:52.312Z,10.70
2019-03-03T14:35:23.485Z,10.70
2019-03-03T14:37:54.506Z,10.70
2019-03-03T14:40:26.979Z,10.70
2019-03-03T14:42:57.920Z,10.60
2019-03-03T14:45:29.623Z,10.70
2019-03-03T14:48:00.848Z,10.70
2019-03-03T14:50:32.863Z,10.70
2019-03-03T14:53:03.821Z,10.70
2019-03-03T14:55:34.649Z,10.70
2019-03-03T14:58:05.563Z,10.70
2019-03-03T15:00:36.474Z,10.70
2019-03-03T15:03:08.511Z,10.70
2019-03-03T15:05:39.691Z,10.80
2019-03-03T15:08:11.546Z,10.80
2019-03-03T15:10:42.453Z,10.80
2019-03-03T15:13:13.398Z,10.80
2019-03-03T15:15:45.372Z,10.80
2019-03-03T15:18:16.426Z,10.80
2019-03-03T15:20:47.291Z,10.90
2019-03-03T15:23:18.380Z,10.90
2019-03-03T15:25:49.423Z,10.90
2019-03-03T15:28:20.434Z,10.90
2019-03-03T15:30:51.538Z,10.90
2019-03-03T15:33:22.702Z,10.90
2019-03-03T15:35:53.706Z,10.90
2019-03-03T15:38:24.875Z,10.90
2019-03-03T15:40:55.931Z,10.90
2019-03-03T15:43:27.047Z,11.00
2019-03-03T15:45:57.862Z,11.00
2019-03-03T15:48:30.532Z,11.00
2019-03-03T15:51:01.347Z,11.00
2019-03-03T15:53:32.185Z,11.00
2019-03-03T15:56:03.044Z,11.00
2019-03-03T15:58:33.927Z,11.00
2019-03-03T16:01:10.716Z,11.00
2019-03-03T16:03:41.652Z,11.00
2019-03-03T16:06:14.156Z,11.10
2019-03-03T16:08:45.191Z,11.10
2019-03-03T16:11:16.125Z,11.10
2019-03-03T16:13:48.054Z,11.10
2019-03-03T16:16:19.079Z,11.20
2019-03-03T16:18:52.110Z,11.20
2019-03-03T16:21:22.667Z,11.20
2019-03-03T16:23:53.514Z,11.20
2019-03-03T16:26:24.494Z,11.30
2019-03-03T16:28:55.342Z,11.30
2019-03-03T16:31:27.418Z,11.30
2019-03-03T16:33:58.411Z,11.30
2019-03-03T16:36:30.265Z,11.30
2019-03-03T16:39:01.949Z,11.40
2019-03-03T16:41:36.097Z,11.40
2019-03-03T16:44:07.246Z,11.40
2019-03-03T16:46:38.126Z,11.40
2019-03-03T16:49:09.135Z,11.40
2019-03-03T16:51:40.185Z,11.40
2019-03-03T16:54:11.104Z,11.40
2019-03-03T16:56:42.120Z,11.40
2019-03-03T16:59:13.151Z,11.50
2019-03-03T17:01:44.091Z,11.40
2019-03-03T17:04:15.041Z,11.50
2019-03-03T17:06:45.900Z,11.50
2019-03-03T17:09:17.536Z,11.50
2019-03-03T17:11:48.507Z,11.50
2019-03-03T17:14:20.035Z,11.50
2019-03-03T17:16:50.894Z,11.50
2019-03-03T17:19:21.763Z,11.50
2019-03-03T17:21:52.781Z,11.50
2019-03-03T17:24:23.623Z,11.50
2019-03-03T17:26:54.464Z,11.60
2019-03-03T17:29:25.354Z,11.60
2019-03-03T17:31:56.320Z,11.70
2019-03-03T17:34:27.208Z,11.70
2019-03-03T17:36:58.161Z,11.70
2019-03-03T17:39:29.152Z,11.70
2019-03-03T17:42:00.273Z,11.70
2019-03-03T17:44:31.237Z,11.60
2019-03-03T17:47:02.189Z,11.60
2019-03-03T17:49:33.047Z,11.70
2019-03-03T17:52:03.996Z,11.70
2019-03-03T17:54:36.243Z,11.60
2019-03-03T17:57:07.048Z,11.70
2019-03-03T17:59:37.884Z,11.70
2019-03-03T18:02:08.933Z,11.70
2019-03-03T18:04:41.199Z,11.70
2019-03-03T18:07:12.007Z,11.70
2019-03-03T18:09:42.868Z,11.80
2019-03-03T18:12:13.758Z,11.70
2019-03-03T18:14:44.860Z,11.80
2019-03-03T18:17:15.781Z,11.70
2019-03-03T18:19:46.764Z,11.70
2019-03-03T18:22:17.739Z,11.70
2019-03-03T18:24:48.616Z,11.70
2019-03-03T18:27:19.461Z,11.70
2019-03-03T18:29:50.296Z,11.70
2019-03-03T18:32:21.202Z,11.80
2019-03-03T18:34:52.150Z,11.80
2019-03-03T18:37:23.111Z,11.80
2019-03-03T18:39:54.064Z,11.80
2019-03-03T18:42:25.177Z,11.80
2019-03-03T18:44:56.062Z,11.80
2019-03-03T18:47:27.050Z,11.80
2019-03-03T18:49:57.979Z,11.80
2019-03-03T18:52:29.087Z,11.80
2019-03-03T18:54:59.999Z,11.90
2019-03-03T18:57:31.023Z,11.90
2019-03-03T19:00:01.998Z,11.90
2019-03-03T19:02:34.915Z,11.90
2019-03-03T19:05:06.861Z,11.90
2019-03-03T19:07:37.891Z,12.00
2019-03-03T19:10:11.389Z,12.00
2019-03-03T19:12:42.424Z,11.90
2019-03-03T19:15:15.395Z,11.90
2019-03-03T19:17:46.487Z,11.90
2019-03-03T19:20:18.924Z,12.00
2019-03-03T19:22:51.207Z,11.90
2019-03-03T19:25:22.269Z,12.00
2019-03-03T19:27:53.224Z,12.00
2019-03-03T19:30:25.114Z,12.00
2019-03-03T19:33:05.350Z,12.10
2019-03-03T19:35:36.339Z,12.10
2019-03-03T19:38:07.412Z,12.20
2019-03-03T19:40:38.400Z,12.10
2019-03-03T19:43:10.793Z,12.10
2019-03-03T19:45:41.816Z,12.10
2019-03-03T19:48:13.782Z,12.10
2019-03-03T19:50:44.927Z,12.20
2019-03-03T19:53:15.903Z,12.10
2019-03-03T19:55:47.082Z,12.10
2019-03-03T19:58:18.046Z,12.10
2019-03-03T20:00:49.114Z,12.10
2019-03-03T20:03:20.252Z,12.10
2019-03-03T20:05:51.336Z,12.10
2019-03-03T20:08:22.434Z,12.10
2019-03-03T20:10:53.558Z,12.10
2019-03-03T20:13:24.674Z,12.10
2019-03-03T20:15:55.812Z,12.10
2019-03-03T20:18:26.931Z,12.10
2019-03-03T20:20:57.819Z,12.10
2019-03-03T20:23:28.825Z,12.10
2019-03-03T20:26:00.069Z,12.10
2019-03-03T20:28:31.220Z,12.10
2019-03-03T20:31:02.377Z,12.10
2019-03-03T20:33:33.484Z,12.10
2019-03-03T20:36:04.709Z,12.10
2019-03-03T20:38:35.652Z,12.20
2019-03-03T20:41:06.644Z,12.20
2019-03-03T20:43:38.103Z,12.20
2019-03-03T20:46:09.076Z,12.30
2019-03-03T20:48:42.546Z,12.30
2019-03-03T20:51:13.473Z,12.30
2019-03-03T20:53:44.529Z,12.40
2019-03-03T20:56:17.667Z,12.40
2019-03-03T20:58:48.544Z,12.40
2019-03-03T21:01:20.580Z,12.40
2019-03-03T21:03:52.755Z,12.30
2019-03-03T21:06:23.879Z,12.30
2019-03-03T21:08:55.904Z,12.30
2019-03-03T21:11:28.782Z,12.20
2019-03-03T21:13:59.914Z,12.20
2019-03-03T21:16:30.700Z,12.30
2019-03-03T21:19:01.536Z,12.20
2019-03-03T21:21:32.436Z,12.20
2019-03-03T21:24:03.303Z,12.20
2019-03-03T21:26:34.381Z,12.20
2019-03-03T21:29:05.373Z,12.30
2019-03-03T21:31:36.248Z,12.30
2019-03-03T21:34:07.193Z,12.30
2019-03-03T21:36:38.183Z,12.40
2019-03-03T21:39:09.443Z,12.40
2019-03-03T21:41:40.970Z,12.40
2019-03-03T21:44:14.313Z,12.40
2019-03-03T21:46:45.340Z,12.40
2019-03-03T21:49:16.332Z,12.40
2019-03-03T21:51:47.333Z,12.40
2019-03-03T21:54:18.365Z,12.40
2019-03-03T21:56:49.405Z,12.40
2019-03-03T21:59:20.543Z,12.40
2019-03-03T22:01:51.475Z,12.40
2019-03-03T22:04:22.678Z,12.50
2019-03-03T22:06:53.775Z,12.50
2019-03-03T22:09:24.643Z,12.50
2019-03-03T22:11:55.485Z,12.50
2019-03-03T22:14:26.604Z,12.60
2019-03-03T22:16:57.611Z,12.60
2019-03-03T22:19:28.513Z,12.60
2019-03-03T22:21:59.431Z,12.60
2019-03-03T22:24:31.429Z,12.60
2019-03-03T22:27:02.348Z,12.60
2019-03-03T22:29:33.294Z,12.60
2019-03-03T22:32:04.125Z,12.60
2019-03-03T22:34:35.011Z,12.70
2019-03-03T22:37:06.036Z,12.70
2019-03-03T22:39:36.854Z,12.70
2019-03-03T22:42:07.708Z,12.70
2019-03-03T22:44:39.515Z,12.70
2019-03-03T22:47:10.679Z,12.70
2019-03-03T22:49:41.734Z,12.80
2019-03-03T22:52:12.635Z,12.80
2019-03-03T22:54:44.548Z,12.70
2019-03-03T22:57:15.537Z,12.70
2019-03-03T22:59:46.395Z,12.70
2019-03-03T23:02:20.026Z,12.70
2019-03-03T23:05:20.404Z,12.60
2019-03-03T23:08:11.367Z,12.60
2019-03-03T23:11:10.978Z,12.60
2019-03-03T23:14:09.351Z,12.60
2019-03-03T23:17:21.977Z,12.50
2019-03-03T23:20:13.026Z,12.50
2019-03-03T23:23:15.357Z,12.50
2019-03-03T23:25:53.176Z,12.40
2019-03-03T23:28:25.019Z,12.40
2019-03-03T23:30:56.676Z,12.40
2019-03-03T23:33:27.508Z,12.40
2019-03-03T23:35:58.300Z,12.40
2019-03-03T23:38:29.079Z,12.40
2019-03-03T23:40:59.982Z,12.40
2019-03-03T23:43:31.099Z,12.40
2019-03-03T23:46:02.401Z,12.50
2019-03-03T23:48:33.462Z,12.50
2019-03-03T23:51:04.293Z,12.60
2019-03-03T23:53:35.188Z,12.60
2019-03-03T23:56:06.140Z,12.60
2019-03-03T23:58:36.926Z,12.60
